sensor_id;sensor_type;location;lat;lon;timestamp;pressure;altitude;pressure_sealevel;temperature;humidity
11525;BME280;5819;49.648;8.330;2023-08-30T00:02:07;99764.13;;;15.50;100.00
11525;BME280;5819;49.648;8.330;2023-08-30T00:04:35;99765.47;;;15.55;100.00
11525;BME280;5819;49.648;8.330;2023-08-30T00:07:03;99766.56;;;15.53;100.00
11525;BME280;5819;49.648;8.330;2023-08-30T00:09:32;99770.31;;;15.49;100.00
11525;BME280;5819;49.648;8.330;2023-08-30T00:12:02;99771.47;;;15.44;100.00
11525;BME280;5819;49.648;8.330;2023-08-30T00:14:31;99770.97;;;15.39;100.00
11525;BME280;5819;49.648;8.330;2023-08-30T00:17:00;99766.44;;;15.41;100.00
11525;BME280;5819;49.648;8.330;2023-08-30T00:19:28;99759.31;;;15.43;100.00
11525;BME280;5819;49.648;8.330;2023-08-30T00:21:57;99747.47;;;15.51;100.00
11525;BME280;5819;49.648;8.330;2023-08-30T00:24:24;99745.22;;;15.57;100.00
11525;BME280;5819;49.648;8.330;2023-08-30T00:26:53;99750.38;;;15.46;100.00
11525;BME280;5819;49.648;8.330;2023-08-30T00:29:21;99757.94;;;15.38;100.00
11525;BME280;5819;49.648;8.330;2023-08-30T00:31:49;99750.53;;;15.32;100.00
11525;BME280;5819;49.648;8.330;2023-08-30T00:34:17;99756.72;;;15.31;100.00
11525;BME280;5819;49.648;8.330;2023-08-30T00:36:44;99757.03;;;15.26;100.00
11525;BME280;5819;49.648;8.330;2023-08-30T00:39:12;99754.31;;;15.28;100.00
11525;BME280;5819;49.648;8.330;2023-08-30T00:41:40;99757.16;;;15.25;100.00
11525;BME280;5819;49.648;8.330;2023-08-30T00:44:09;99750.75;;;15.29;100.00
11525;BME280;5819;49.648;8.330;2023-08-30T00:46:37;99750.53;;;15.32;100.00
11525;BME280;5819;49.648;8.330;2023-08-30T00:49:06;99745.78;;;15.37;100.00
11525;BME280;5819;49.648;8.330;2023-08-30T00:51:34;99750.94;;;15.38;100.00
11525;BME280;5819;49.648;8.330;2023-08-30T00:54:02;99747.59;;;15.36;100.00
11525;BME280;5819;49.648;8.330;2023-08-30T00:56:31;99737.59;;;15.41;100.00
11525;BME280;5819;49.648;8.330;2023-08-30T00:58:59;99737.72;;;15.40;100.00
11525;BME280;5819;49.648;8.330;2023-08-30T01:01:29;99739.59;;;15.38;100.00
11525;BME280;5819;49.648;8.330;2023-08-30T01:03:57;99745.78;;;15.37;100.00
11525;BME280;5819;49.648;8.330;2023-08-30T01:06:25;99742.00;;;15.41;100.00
11525;BME280;5819;49.648;8.330;2023-08-30T01:08:53;99737.03;;;15.49;100.00
11525;BME280;5819;49.648;8.330;2023-08-30T01:11:26;99731.41;;;15.55;100.00
11525;BME280;5819;49.648;8.330;2023-08-30T01:14:02;99732.25;;;15.56;100.00
11525;BME280;5819;49.648;8.330;2023-08-30T01:16:35;99726.78;;;15.46;100.00
11525;BME280;5819;49.648;8.330;2023-08-30T01:19:13;99723.44;;;15.44;100.00
11525;BME280;5819;49.648;8.330;2023-08-30T01:21:50;99725.19;;;15.32;100.00
11525;BME280;5819;49.648;8.330;2023-08-30T01:24:29;99726.97;;;15.32;100.00
11525;BME280;5819;49.648;8.330;2023-08-30T01:27:08;99720.53;;;15.36;100.00
11525;BME280;5819;49.648;8.330;2023-08-30T01:29:37;99720.53;;;15.36;100.00
11525;BME280;5819;49.648;8.330;2023-08-30T01:32:08;99720.53;;;15.36;100.00
11525;BME280;5819;49.648;8.330;2023-08-30T01:34:37;99714.28;;;15.26;100.00
11525;BME280;5819;49.648;8.330;2023-08-30T01:37:07;99705.47;;;15.27;100.00
11525;BME280;5819;49.648;8.330;2023-08-30T01:39:36;99710.78;;;15.38;100.00
11525;BME280;5819;49.648;8.330;2023-08-30T01:42:09;99712.75;;;15.47;100.00
11525;BME280;5819;49.648;8.330;2023-08-30T01:44:37;99705.53;;;15.51;100.00
11525;BME280;5819;49.648;8.330;2023-08-30T01:47:07;99704.56;;;15.52;100.00
11525;BME280;5819;49.648;8.330;2023-08-30T01:49:36;99697.72;;;15.49;100.00
11525;BME280;5819;49.648;8.330;2023-08-30T01:52:06;99702.06;;;15.37;100.00
11525;BME280;5819;49.648;8.330;2023-08-30T01:54:36;99696.34;;;15.32;100.00
11525;BME280;5819;49.648;8.330;2023-08-30T01:57:05;99708.81;;;15.29;100.00
11525;BME280;5819;49.648;8.330;2023-08-30T01:59:35;99702.13;;;15.25;100.00
11525;BME280;5819;49.648;8.330;2023-08-30T02:02:03;99709.88;;;15.26;100.00
11525;BME280;5819;49.648;8.330;2023-08-30T02:04:30;99692.47;;;15.25;100.00
11525;BME280;5819;49.648;8.330;2023-08-30T02:07:02;99694.47;;;15.22;100.00
11525;BME280;5819;49.648;8.330;2023-08-30T02:09:35;99694.81;;;15.17;100.00
11525;BME280;5819;49.648;8.330;2023-08-30T02:12:13;99690.69;;;15.26;100.00
11525;BME280;5819;49.648;8.330;2023-08-30T02:14:47;99693.09;;;15.29;100.00
11525;BME280;5819;49.648;8.330;2023-08-30T02:17:17;99697.16;;;15.33;100.00
11525;BME280;5819;49.648;8.330;2023-08-30T02:19:45;99696.44;;;15.31;100.00
11525;BME280;5819;49.648;8.330;2023-08-30T02:22:17;99695.31;;;15.22;100.00
11525;BME280;5819;49.648;8.330;2023-08-30T02:24:45;99704.56;;;15.15;100.00
11525;BME280;5819;49.648;8.330;2023-08-30T02:27:13;99704.16;;;15.09;100.00
11525;BME280;5819;49.648;8.330;2023-08-30T02:29:41;99703.34;;;15.08;100.00
11525;BME280;5819;49.648;8.330;2023-08-30T02:32:10;99702.69;;;15.05;100.00
11525;BME280;5819;49.648;8.330;2023-08-30T02:34:38;99703.78;;;15.02;100.00
11525;BME280;5819;49.648;8.330;2023-08-30T02:37:06;99703.16;;;14.98;100.00
11525;BME280;5819;49.648;8.330;2023-08-30T02:39:34;99705.00;;;15.09;100.00
11525;BME280;5819;49.648;8.330;2023-08-30T02:42:02;99695.56;;;15.19;100.00
11525;BME280;5819;49.648;8.330;2023-08-30T02:44:30;99701.41;;;15.23;100.00
11525;BME280;5819;49.648;8.330;2023-08-30T02:46:57;99706.59;;;15.12;100.00
11525;BME280;5819;49.648;8.330;2023-08-30T02:49:26;99704.38;;;15.06;100.00
11525;BME280;5819;49.648;8.330;2023-08-30T02:51:54;99702.94;;;15.02;100.00
11525;BME280;5819;49.648;8.330;2023-08-30T02:54:22;99709.31;;;14.97;100.00
11525;BME280;5819;49.648;8.330;2023-08-30T02:56:50;99711.00;;;14.98;100.00
11525;BME280;5819;49.648;8.330;2023-08-30T02:59:18;99709.94;;;15.01;100.00
11525;BME280;5819;49.648;8.330;2023-08-30T03:01:46;99705.69;;;15.00;100.00
11525;BME280;5819;49.648;8.330;2023-08-30T03:04:16;99695.69;;;15.05;100.00
11525;BME280;5819;49.648;8.330;2023-08-30T03:06:45;99705.31;;;15.05;100.00
11525;BME280;5819;49.648;8.330;2023-08-30T03:09:13;99700.09;;;15.05;100.00
11525;BME280;5819;49.648;8.330;2023-08-30T03:11:43;99703.88;;;15.00;100.00
11525;BME280;5819;49.648;8.330;2023-08-30T03:14:11;99703.38;;;14.95;100.00
11525;BME280;5819;49.648;8.330;2023-08-30T03:16:38;99702.53;;;14.95;100.00
11525;BME280;5819;49.648;8.330;2023-08-30T03:19:06;99701.75;;;15.06;100.00
11525;BME280;5819;49.648;8.330;2023-08-30T03:21:34;99706.44;;;15.13;100.00
11525;BME280;5819;49.648;8.330;2023-08-30T03:24:04;99701.34;;;15.12;100.00
11525;BME280;5819;49.648;8.330;2023-08-30T03:26:34;99700.72;;;15.08;100.00
11525;BME280;5819;49.648;8.330;2023-08-30T03:29:02;99705.53;;;15.02;100.00
11525;BME280;5819;49.648;8.330;2023-08-30T03:31:30;99700.75;;;14.95;100.00
11525;BME280;5819;49.648;8.330;2023-08-30T03:33:58;99700.75;;;14.95;100.00
11525;BME280;5819;49.648;8.330;2023-08-30T03:36:26;99695.84;;;14.91;100.00
11525;BME280;5819;49.648;8.330;2023-08-30T03:38:53;99704.41;;;14.93;100.00
11525;BME280;5819;49.648;8.330;2023-08-30T03:41:22;99704.41;;;14.93;100.00
11525;BME280;5819;49.648;8.330;2023-08-30T03:43:51;99706.72;;;14.97;100.00
11525;BME280;5819;49.648;8.330;2023-08-30T03:46:19;99700.81;;;15.07;100.00
11525;BME280;5819;49.648;8.330;2023-08-30T03:48:47;99703.00;;;15.13;100.00
11525;BME280;5819;49.648;8.330;2023-08-30T03:51:16;99699.66;;;15.11;100.00
11525;BME280;5819;49.648;8.330;2023-08-30T03:53:44;99700.00;;;15.06;100.00
11525;BME280;5819;49.648;8.330;2023-08-30T03:56:12;99702.75;;;14.92;100.00
11525;BME280;5819;49.648;8.330;2023-08-30T03:58:42;99701.94;;;14.79;100.00
11525;BME280;5819;49.648;8.330;2023-08-30T04:01:10;99706.44;;;14.77;100.00
11525;BME280;5819;49.648;8.330;2023-08-30T04:03:38;99705.94;;;14.72;100.00
11525;BME280;5819;49.648;8.330;2023-08-30T04:06:07;99706.88;;;14.71;100.00
11525;BME280;5819;49.648;8.330;2023-08-30T04:08:34;99705.09;;;14.71;100.00
11525;BME280;5819;49.648;8.330;2023-08-30T04:11:02;99703.50;;;14.81;100.00
11525;BME280;5819;49.648;8.330;2023-08-30T04:13:30;99704.88;;;14.74;100.00
11525;BME280;5819;49.648;8.330;2023-08-30T04:15:59;99703.63;;;14.67;100.00
11525;BME280;5819;49.648;8.330;2023-08-30T04:18:27;99703.13;;;14.62;100.00
11525;BME280;5819;49.648;8.330;2023-08-30T04:20:57;99706.16;;;14.56;100.00
11525;BME280;5819;49.648;8.330;2023-08-30T04:23:25;99700.50;;;14.62;100.00
11525;BME280;5819;49.648;8.330;2023-08-30T04:25:53;99681.53;;;14.71;100.00
11525;BME280;5819;49.648;8.330;2023-08-30T04:28:21;99686.44;;;14.76;100.00
11525;BME280;5819;49.648;8.330;2023-08-30T04:30:53;99687.16;;;14.78;100.00
11525;BME280;5819;49.648;8.330;2023-08-30T04:33:23;99689.69;;;14.79;100.00
11525;BME280;5819;49.648;8.330;2023-08-30T04:35:51;99692.53;;;14.76;100.00
11525;BME280;5819;49.648;8.330;2023-08-30T04:38:19;99692.41;;;14.78;100.00
11525;BME280;5819;49.648;8.330;2023-08-30T04:40:47;99689.25;;;14.73;100.00
11525;BME280;5819;49.648;8.330;2023-08-30T04:43:16;99690.94;;;14.74;100.00
11525;BME280;5819;49.648;8.330;2023-08-30T04:45:47;99690.72;;;14.77;100.00
11525;BME280;5819;49.648;8.330;2023-08-30T04:48:15;99684.22;;;14.82;100.00
11525;BME280;5819;49.648;8.330;2023-08-30T04:50:44;99682.34;;;14.84;100.00
11525;BME280;5819;49.648;8.330;2023-08-30T04:53:12;99690.69;;;14.89;100.00
11525;BME280;5819;49.648;8.330;2023-08-30T04:55:40;99691.44;;;14.91;100.00
11525;BME280;5819;49.648;8.330;2023-08-30T04:58:08;99688.59;;;14.94;100.00
11525;BME280;5819;49.648;8.330;2023-08-30T05:00:36;99685.03;;;14.95;100.00
11525;BME280;5819;49.648;8.330;2023-08-30T05:03:06;99691.84;;;14.98;100.00
11525;BME280;5819;49.648;8.330;2023-08-30T05:05:35;99680.75;;;14.94;100.00
11525;BME280;5819;49.648;8.330;2023-08-30T05:08:04;99683.47;;;14.93;100.00
11525;BME280;5819;49.648;8.330;2023-08-30T05:10:33;99684.59;;;15.02;100.00
11525;BME280;5819;49.648;8.330;2023-08-30T05:13:02;99677.97;;;15.09;100.00
11525;BME280;5819;49.648;8.330;2023-08-30T05:15:31;99684.56;;;15.14;100.00
11525;BME280;5819;49.648;8.330;2023-08-30T05:18:00;99682.69;;;15.16;100.00
11525;BME280;5819;49.648;8.330;2023-08-30T05:20:29;99682.56;;;15.18;100.00
11525;BME280;5819;49.648;8.330;2023-08-30T05:22:57;99681.38;;;15.22;100.00
11525;BME280;5819;49.648;8.330;2023-08-30T05:25:26;99682.13;;;15.24;100.00
11525;BME280;5819;49.648;8.330;2023-08-30T05:27:54;99675.09;;;15.24;100.00
11525;BME280;5819;49.648;8.330;2023-08-30T05:30:22;99684.50;;;15.27;100.00
11525;BME280;5819;49.648;8.330;2023-08-30T05:32:52;99686.81;;;15.31;100.00
11525;BME280;5819;49.648;8.330;2023-08-30T05:35:43;99686.47;;;15.36;100.00
11525;BME280;5819;49.648;8.330;2023-08-30T05:38:30;99688.78;;;15.40;100.00
11525;BME280;5819;49.648;8.330;2023-08-30T05:41:08;99692.84;;;15.44;100.00
11525;BME280;5819;49.648;8.330;2023-08-30T05:43:35;99684.13;;;15.44;100.00
11525;BME280;5819;49.648;8.330;2023-08-30T05:46:05;99686.44;;;15.49;100.00
11525;BME280;5819;49.648;8.330;2023-08-30T05:49:10;99690.28;;;15.56;100.00
11525;BME280;5819;49.648;8.330;2023-08-30T05:51:39;99691.84;;;15.58;100.00
11525;BME280;5819;49.648;8.330;2023-08-30T05:54:08;99685.66;;;15.59;100.00
11525;BME280;5819;49.648;8.330;2023-08-30T05:56:38;99677.78;;;15.59;100.00
11525;BME280;5819;49.648;8.330;2023-08-30T05:59:06;99684.72;;;15.60;100.00
11525;BME280;5819;49.648;8.330;2023-08-30T06:01:34;99679.56;;;15.59;100.00
11525;BME280;5819;49.648;8.330;2023-08-30T06:04:03;99682.44;;;15.56;100.00
11525;BME280;5819;49.648;8.330;2023-08-30T06:06:32;99683.47;;;15.53;100.00
11525;BME280;5819;49.648;8.330;2023-08-30T06:09:00;99683.28;;;15.56;100.00
11525;BME280;5819;49.648;8.330;2023-08-30T06:11:29;99681.03;;;15.63;100.00
11525;BME280;5819;49.648;8.330;2023-08-30T06:13:58;99683.31;;;15.67;100.00
11525;BME280;5819;49.648;8.330;2023-08-30T06:16:26;99683.06;;;15.70;100.00
11525;BME280;5819;49.648;8.330;2023-08-30T06:18:54;99686.06;;;15.77;100.00
11525;BME280;5819;49.648;8.330;2023-08-30T06:21:23;99689.31;;;15.80;100.00
11525;BME280;5819;49.648;8.330;2023-08-30T06:23:51;99678.47;;;15.85;100.00
11525;BME280;5819;49.648;8.330;2023-08-30T06:26:19;99685.88;;;15.91;100.00
11525;BME280;5819;49.648;8.330;2023-08-30T06:28:48;99686.72;;;15.91;100.00
11525;BME280;5819;49.648;8.330;2023-08-30T06:31:32;99687.44;;;15.93;100.00
11525;BME280;5819;49.648;8.330;2023-08-30T06:34:00;99680.31;;;15.96;100.00
11525;BME280;5819;49.648;8.330;2023-08-30T06:36:28;99678.53;;;15.96;100.00
11525;BME280;5819;49.648;8.330;2023-08-30T06:38:56;99676.50;;;16.00;100.00
11525;BME280;5819;49.648;8.330;2023-08-30T06:41:24;99672.69;;;16.04;100.00
11525;BME280;5819;49.648;8.330;2023-08-30T06:43:52;99672.00;;;16.13;100.00
11525;BME280;5819;49.648;8.330;2023-08-30T06:46:20;99672.59;;;16.16;100.00
11525;BME280;5819;49.648;8.330;2023-08-30T06:48:49;99663.41;;;16.22;100.00
11525;BME280;5819;49.648;8.330;2023-08-30T06:51:17;99666.50;;;16.27;100.00
11525;BME280;5819;49.648;8.330;2023-08-30T06:53:45;99654.09;;;16.29;100.00
11525;BME280;5819;49.648;8.330;2023-08-30T06:56:14;99664.03;;;16.36;100.00
11525;BME280;5819;49.648;8.330;2023-08-30T06:58:42;99651.25;;;16.43;100.00
11525;BME280;5819;49.648;8.330;2023-08-30T07:01:10;99662.25;;;16.48;100.00
11525;BME280;5819;49.648;8.330;2023-08-30T07:03:39;99654.81;;;16.53;100.00
11525;BME280;5819;49.648;8.330;2023-08-30T07:06:09;99658.91;;;16.57;100.00
11525;BME280;5819;49.648;8.330;2023-08-30T07:08:39;99653.44;;;16.60;100.00
11525;BME280;5819;49.648;8.330;2023-08-30T07:11:15;99652.47;;;16.61;100.00
11525;BME280;5819;49.648;8.330;2023-08-30T07:13:59;99647.34;;;16.71;100.00
11525;BME280;5819;49.648;8.330;2023-08-30T07:16:27;99643.63;;;16.84;100.00
11525;BME280;5819;49.648;8.330;2023-08-30T07:18:55;99636.91;;;16.92;100.00
11525;BME280;5819;49.648;8.330;2023-08-30T07:21:25;99636.88;;;17.03;100.00
11525;BME280;5819;49.648;8.330;2023-08-30T07:23:53;99624.44;;;17.48;100.00
11525;BME280;5819;49.648;8.330;2023-08-30T07:26:23;99627.31;;;17.76;100.00
11525;BME280;5819;49.648;8.330;2023-08-30T07:28:52;99620.22;;;17.98;100.00
11525;BME280;5819;49.648;8.330;2023-08-30T07:31:21;99624.09;;;17.94;100.00
11525;BME280;5819;49.648;8.330;2023-08-30T07:33:49;99626.09;;;17.81;100.00
11525;BME280;5819;49.648;8.330;2023-08-30T07:36:19;99637.00;;;17.76;100.00
11525;BME280;5819;49.648;8.330;2023-08-30T07:38:57;99628.28;;;17.75;100.00
11525;BME280;5819;49.648;8.330;2023-08-30T07:41:25;99631.84;;;17.74;100.00
11525;BME280;5819;49.648;8.330;2023-08-30T07:43:53;99635.63;;;17.82;100.00
11525;BME280;5819;49.648;8.330;2023-08-30T07:46:22;99628.19;;;18.07;100.00
11525;BME280;5819;49.648;8.330;2023-08-30T07:48:52;99635.72;;;17.91;100.00
11525;BME280;5819;49.648;8.330;2023-08-30T07:51:21;99642.13;;;17.77;100.00
11525;BME280;5819;49.648;8.330;2023-08-30T07:53:52;99642.00;;;17.79;100.00
11525;BME280;5819;49.648;8.330;2023-08-30T07:56:23;99639.63;;;17.76;100.00
11525;BME280;5819;49.648;8.330;2023-08-30T07:58:53;99640.50;;;17.86;100.00
11525;BME280;5819;49.648;8.330;2023-08-30T08:01:24;99641.25;;;17.88;100.00
11525;BME280;5819;49.648;8.330;2023-08-30T08:03:55;99645.13;;;17.94;100.00
11525;BME280;5819;49.648;8.330;2023-08-30T08:06:34;99644.38;;;18.03;100.00
11525;BME280;5819;49.648;8.330;2023-08-30T08:09:04;99646.72;;;18.06;100.00
11525;BME280;5819;49.648;8.330;2023-08-30T08:11:36;99643.38;;;18.24;100.00
11525;BME280;5819;49.648;8.330;2023-08-30T08:14:06;99640.75;;;18.24;100.00
11525;BME280;5819;49.648;8.330;2023-08-30T08:16:34;99631.16;;;18.44;100.00
11525;BME280;5819;49.648;8.330;2023-08-30T08:19:03;99632.59;;;18.58;100.00
11525;BME280;5819;49.648;8.330;2023-08-30T08:21:31;99644.81;;;18.59;100.00
11525;BME280;5819;49.648;8.330;2023-08-30T08:23:59;99634.81;;;18.53;100.00
11525;BME280;5819;49.648;8.330;2023-08-30T08:26:27;99636.91;;;18.59;100.00
11525;BME280;5819;49.648;8.330;2023-08-30T08:28:57;99634.28;;;18.59;100.00
11525;BME280;5819;49.648;8.330;2023-08-30T08:31:25;99644.59;;;18.41;100.00
11525;BME280;5819;49.648;8.330;2023-08-30T08:34:08;99642.75;;;18.42;100.00
11525;BME280;5819;49.648;8.330;2023-08-30T08:36:37;99637.19;;;18.35;100.00
11525;BME280;5819;49.648;8.330;2023-08-30T08:39:05;99633.78;;;18.44;100.00
11525;BME280;5819;49.648;8.330;2023-08-30T08:41:40;99639.09;;;18.54;100.00
11525;BME280;5819;49.648;8.330;2023-08-30T08:44:11;99640.50;;;18.58;100.00
11525;BME280;5819;49.648;8.330;2023-08-30T08:46:40;99648.00;;;18.62;100.00
11525;BME280;5819;49.648;8.330;2023-08-30T08:49:16;99642.38;;;18.77;100.00
11525;BME280;5819;49.648;8.330;2023-08-30T08:51:44;99638.13;;;18.85;100.00
11525;BME280;5819;49.648;8.330;2023-08-30T08:54:13;99645.88;;;18.87;100.00
11525;BME280;5819;49.648;8.330;2023-08-30T08:56:41;99645.94;;;18.66;100.00
11525;BME280;5819;49.648;8.330;2023-08-30T08:59:10;99646.94;;;18.65;100.00
11525;BME280;5819;49.648;8.330;2023-08-30T09:01:39;99644.53;;;18.52;100.00
11525;BME280;5819;49.648;8.330;2023-08-30T09:04:10;99643.47;;;18.74;100.00
11525;BME280;5819;49.648;8.330;2023-08-30T09:06:39;99640.75;;;18.95;100.00
11525;BME280;5819;49.648;8.330;2023-08-30T09:09:08;99642.72;;;19.02;100.00
11525;BME280;5819;49.648;8.330;2023-08-30T09:11:36;99643.81;;;19.00;100.00
11525;BME280;5819;49.648;8.330;2023-08-30T09:14:19;99638.84;;;19.06;100.00
11525;BME280;5819;49.648;8.330;2023-08-30T09:16:57;99643.84;;;19.19;100.00
11525;BME280;5819;49.648;8.330;2023-08-30T09:19:27;99639.38;;;19.10;97.95
11525;BME280;5819;49.648;8.330;2023-08-30T09:21:58;99623.63;;;19.29;93.28
11525;BME280;5819;49.648;8.330;2023-08-30T09:24:37;99631.22;;;19.23;92.81
11525;BME280;5819;49.648;8.330;2023-08-30T09:27:06;99629.84;;;19.09;94.83
11525;BME280;5819;49.648;8.330;2023-08-30T09:29:36;99629.13;;;19.26;94.32
11525;BME280;5819;49.648;8.330;2023-08-30T09:32:04;99625.69;;;19.35;94.10
11525;BME280;5819;49.648;8.330;2023-08-30T09:34:35;99620.69;;;19.32;94.21
11525;BME280;5819;49.648;8.330;2023-08-30T09:37:05;99607.78;;;19.39;93.01
11525;BME280;5819;49.648;8.330;2023-08-30T09:39:33;99611.13;;;19.41;93.20
11525;BME280;5819;49.648;8.330;2023-08-30T09:42:02;99596.72;;;19.45;92.33
11525;BME280;5819;49.648;8.330;2023-08-30T09:44:31;99596.25;;;19.69;94.21
11525;BME280;5819;49.648;8.330;2023-08-30T09:47:03;99593.91;;;19.66;92.84
11525;BME280;5819;49.648;8.330;2023-08-30T09:49:39;99583.06;;;19.69;89.19
11525;BME280;5819;49.648;8.330;2023-08-30T09:52:09;99583.31;;;19.85;89.60
11525;BME280;5819;49.648;8.330;2023-08-30T09:54:38;99578.59;;;19.79;85.54
11525;BME280;5819;49.648;8.330;2023-08-30T09:57:09;99562.44;;;20.01;82.28
11525;BME280;5819;49.648;8.330;2023-08-30T09:59:39;99566.81;;;20.10;81.58
11525;BME280;5819;49.648;8.330;2023-08-30T10:02:09;99551.47;;;20.23;77.16
11525;BME280;5819;49.648;8.330;2023-08-30T10:04:38;99550.41;;;20.16;76.29
11525;BME280;5819;49.648;8.330;2023-08-30T10:07:09;99537.53;;;20.40;73.41
11525;BME280;5819;49.648;8.330;2023-08-30T10:09:38;99538.59;;;20.47;74.63
11525;BME280;5819;49.648;8.330;2023-08-30T10:12:27;99523.69;;;20.56;71.85
11525;BME280;5819;49.648;8.330;2023-08-30T10:14:57;99520.75;;;20.94;75.50
11525;BME280;5819;49.648;8.330;2023-08-30T10:17:31;99518.06;;;21.22;73.66
11525;BME280;5819;49.648;8.330;2023-08-30T10:20:04;99516.34;;;21.13;72.23
11525;BME280;5819;49.648;8.330;2023-08-30T10:22:36;99516.22;;;21.05;73.16
11525;BME280;5819;49.648;8.330;2023-08-30T10:25:08;99515.34;;;21.14;72.91
11525;BME280;5819;49.648;8.330;2023-08-30T10:27:41;99508.53;;;20.93;70.91
11525;BME280;5819;49.648;8.330;2023-08-30T10:30:11;99515.59;;;21.11;73.34
11525;BME280;5819;49.648;8.330;2023-08-30T10:32:42;99519.56;;;21.24;74.51
11525;BME280;5819;49.648;8.330;2023-08-30T10:35:11;99501.09;;;21.32;70.08
11525;BME280;5819;49.648;8.330;2023-08-30T10:37:40;99508.34;;;21.48;73.34
11525;BME280;5819;49.648;8.330;2023-08-30T10:40:08;99507.88;;;21.53;71.81
11525;BME280;5819;49.648;8.330;2023-08-30T10:42:38;99488.59;;;21.17;69.58
11525;BME280;5819;49.648;8.330;2023-08-30T10:45:07;99496.66;;;21.33;70.64
11525;BME280;5819;49.648;8.330;2023-08-30T10:47:41;99498.25;;;21.52;70.56
11525;BME280;5819;49.648;8.330;2023-08-30T10:50:11;99496.09;;;21.73;69.05
11525;BME280;5819;49.648;8.330;2023-08-30T10:52:40;99490.13;;;21.97;72.66
11525;BME280;5819;49.648;8.330;2023-08-30T10:55:09;99494.00;;;22.10;69.91
11525;BME280;5819;49.648;8.330;2023-08-30T10:57:41;99490.22;;;21.61;67.96
11525;BME280;5819;49.648;8.330;2023-08-30T11:00:15;99480.22;;;22.07;71.03
11525;BME280;5819;49.648;8.330;2023-08-30T11:02:49;99467.28;;;22.46;69.65
11525;BME280;5819;49.648;8.330;2023-08-30T11:05:20;99460.00;;;22.64;67.43
11525;BME280;5819;49.648;8.330;2023-08-30T11:07:48;99459.41;;;22.86;67.83
11525;BME280;5819;49.648;8.330;2023-08-30T11:10:17;99455.44;;;22.90;67.73
11525;BME280;5819;49.648;8.330;2023-08-30T11:12:47;99459.66;;;22.43;67.15
11525;BME280;5819;49.648;8.330;2023-08-30T11:15:17;99464.66;;;22.12;67.09
11525;BME280;5819;49.648;8.330;2023-08-30T11:17:47;99459.44;;;22.36;66.17
11525;BME280;5819;49.648;8.330;2023-08-30T11:20:16;99462.69;;;22.06;66.67
11525;BME280;5819;49.648;8.330;2023-08-30T11:22:47;99464.31;;;21.73;65.63
11525;BME280;5819;49.648;8.330;2023-08-30T11:25:16;99456.09;;;22.18;64.30
11525;BME280;5819;49.648;8.330;2023-08-30T11:27:44;99446.28;;;22.02;63.02
11525;BME280;5819;49.648;8.330;2023-08-30T11:30:13;99466.19;;;21.55;66.29
11525;BME280;5819;49.648;8.330;2023-08-30T11:32:42;99458.19;;;21.21;65.94
11525;BME280;5819;49.648;8.330;2023-08-30T11:35:11;99461.84;;;21.02;66.76
11525;BME280;5819;49.648;8.330;2023-08-30T11:37:40;99473.38;;;21.01;67.69
11525;BME280;5819;49.648;8.330;2023-08-30T11:40:11;99463.25;;;20.79;66.72
11525;BME280;5819;49.648;8.330;2023-08-30T11:42:39;99462.06;;;20.73;67.21
11525;BME280;5819;49.648;8.330;2023-08-30T11:45:08;99460.84;;;20.68;67.25
11525;BME280;5819;49.648;8.330;2023-08-30T11:47:37;99471.13;;;20.71;67.46
11525;BME280;5819;49.648;8.330;2023-08-30T11:50:09;99458.13;;;21.30;67.33
11525;BME280;5819;49.648;8.330;2023-08-30T11:52:41;99459.16;;;21.37;66.33
11525;BME280;5819;49.648;8.330;2023-08-30T11:55:09;99454.75;;;21.11;64.88
11525;BME280;5819;49.648;8.330;2023-08-30T11:57:38;99443.94;;;21.99;63.04
11525;BME280;5819;49.648;8.330;2023-08-30T12:00:09;99410.59;;;23.27;61.13
11525;BME280;5819;49.648;8.330;2023-08-30T12:02:37;99397.63;;;23.41;61.52
11525;BME280;5819;49.648;8.330;2023-08-30T12:05:10;99426.25;;;22.90;62.43
11525;BME280;5819;49.648;8.330;2023-08-30T12:07:41;99424.38;;;22.50;61.79
11525;BME280;5819;49.648;8.330;2023-08-30T12:10:10;99418.78;;;22.69;62.38
11525;BME280;5819;49.648;8.330;2023-08-30T12:12:44;99422.03;;;22.55;61.61
11525;BME280;5819;49.648;8.330;2023-08-30T12:15:14;99442.03;;;22.17;64.99
11525;BME280;5819;49.648;8.330;2023-08-30T12:17:42;99429.09;;;21.80;62.75
11525;BME280;5819;49.648;8.330;2023-08-30T12:20:15;99439.28;;;21.67;62.70
11525;BME280;5819;49.648;8.330;2023-08-30T12:22:45;99436.47;;;22.03;62.83
11525;BME280;5819;49.648;8.330;2023-08-30T12:25:22;99403.53;;;22.96;59.86
11525;BME280;5819;49.648;8.330;2023-08-30T12:27:51;99386.06;;;23.81;58.23
11525;BME280;5819;49.648;8.330;2023-08-30T12:30:19;99362.69;;;24.07;56.24
11525;BME280;5819;49.648;8.330;2023-08-30T12:32:48;99360.56;;;24.33;55.56
11525;BME280;5819;49.648;8.330;2023-08-30T12:35:16;99361.88;;;24.06;55.70
11525;BME280;5819;49.648;8.330;2023-08-30T12:37:46;99342.75;;;24.11;52.81
11525;BME280;5819;49.648;8.330;2023-08-30T12:40:15;99358.78;;;23.56;53.06
11525;BME280;5819;49.648;8.330;2023-08-30T12:42:44;99361.19;;;23.43;53.37
11525;BME280;5819;49.648;8.330;2023-08-30T12:45:14;99370.72;;;23.60;56.24
11525;BME280;5819;49.648;8.330;2023-08-30T12:47:42;99370.94;;;23.89;56.88
11525;BME280;5819;49.648;8.330;2023-08-30T12:50:10;99367.66;;;23.79;55.36
11525;BME280;5819;49.648;8.330;2023-08-30T12:52:38;99371.03;;;23.65;55.53
11525;BME280;5819;49.648;8.330;2023-08-30T12:55:08;99363.50;;;23.76;55.16
11525;BME280;5819;49.648;8.330;2023-08-30T12:57:39;99360.78;;;24.23;55.01
11525;BME280;5819;49.648;8.330;2023-08-30T13:00:07;99352.41;;;24.72;54.33
11525;BME280;5819;49.648;8.330;2023-08-30T13:02:36;99339.75;;;24.37;52.33
11525;BME280;5819;49.648;8.330;2023-08-30T13:05:05;99339.50;;;24.23;51.93
11525;BME280;5819;49.648;8.330;2023-08-30T13:07:33;99344.44;;;24.35;53.41
11525;BME280;5819;49.648;8.330;2023-08-30T13:10:02;99344.78;;;24.01;51.80
11525;BME280;5819;49.648;8.330;2023-08-30T13:12:32;99341.53;;;24.21;51.37
11525;BME280;5819;49.648;8.330;2023-08-30T13:15:01;99338.34;;;24.26;52.29
11525;BME280;5819;49.648;8.330;2023-08-30T13:17:32;99361.81;;;23.45;53.27